This is the latest recevied weather packets stored in our database for station/object W1SCW. If no packets are shown the sender has not sent any weather packets the latest 10 day(s).
| Time | Temp. | Humidity | Pressure | Rain* | Wind** | Luminosity | Snow |
|---|---|---|---|---|---|---|---|
| 1777500941 | 30.56° C | 69% | 1007.1 hPa | 0 mm | - | 305 W/m² | - |
| 1777500638 | 30.56° C | 69% | 1007.6 hPa | 0 mm | - | 252 W/m² | - |
| 1777500335 | 30.56° C | 68% | 1008.1 hPa | 0 mm | - | 196 W/m² | - |
| 1777500031 | 30° C | 69% | 1008.3 hPa | 0 mm | - | 347 W/m² | - |
| 1777499727 | 30° C | 69% | 1008.1 hPa | 0 mm | - | 278 W/m² | - |
| 1777499424 | 30° C | 68% | 1008.1 hPa | 0 mm | - | 182 W/m² | - |
| 1777499123 | 30° C | 68% | 1008.1 hPa | 0 mm | - | 153 W/m² | - |
| 1777498819 | 30° C | 68% | 1008.2 hPa | 0 mm | - | 139 W/m² | - |
| 1777498515 | 30.56° C | 68% | 1008 hPa | 0 mm | - | 152 W/m² | - |
| 1777498211 | 30.56° C | 67% | 1007.7 hPa | 0 mm | - | 170 W/m² | - |
| 1777497910 | 30.56° C | 67% | 1007.9 hPa | 0 mm | - | 196 W/m² | - |
| 1777497605 | 30.56° C | 65% | 1008 hPa | 0 mm | - | 192 W/m² | - |
| 1777497302 | 31.67° C | 65% | 1008.1 hPa | 0 mm | - | 266 W/m² | - |
| 1777496998 | 31.67° C | 66% | 1008.1 hPa | 0 mm | - | 364 W/m² | - |
| 1777496695 | 31.11° C | 66% | 1008 hPa | 0 mm | - | 368 W/m² | - |
| 1777496391 | 32.22° C | 63% | 1007.9 hPa | 0 mm | - | 599 W/m² | - |
| 1777496089 | 32.22° C | 63% | 1008.1 hPa | 0 mm | - | 704 W/m² | - |
| 1777495784 | 31.11° C | 65% | 1008.2 hPa | 0 mm | - | 367 W/m² | - |
| 1777495481 | 32.78° C | 64% | 1008.3 hPa | 0 mm | - | 480 W/m² | - |
| 1777495177 | 31.67° C | 66% | 1008.4 hPa | 0 mm | - | 754 W/m² | - |
| 1777494874 | 31.67° C | 65% | 1008.4 hPa | 0 mm | - | 330 W/m² | - |
| 1777494571 | 31.67° C | 65% | 1008.5 hPa | 0 mm | - | 334 W/m² | - |
| 1777494269 | 32.22° C | 63% | 1008.7 hPa | 0 mm | - | 680 W/m² | - |
| 1777493965 | 32.22° C | 63% | 1008.7 hPa | 0 mm | - | 634 W/m² | - |
| 1777493663 | 32.22° C | 63% | 1008.5 hPa | 0 mm | - | 571 W/m² | - |
* Rain latest hour (hover to see other rain measurements)
** Current wind speed in m/s (hover to see current wind gust speed)